createdAt,value
2019-01-31T00:00:35.396Z,4.70
2019-01-31T00:03:56.174Z,4.67
2019-01-31T00:06:45.559Z,4.30
2019-01-31T00:09:57.103Z,4.87
2019-01-31T00:13:17.460Z,4.07
2019-01-31T00:16:21.148Z,4.40
2019-01-31T00:19:35.097Z,4.73
2019-01-31T00:22:52.386Z,4.70
2019-01-31T00:26:24.576Z,4.60
2019-01-31T00:29:13.963Z,5.13
2019-01-31T00:32:17.335Z,5.13
2019-01-31T00:35:28.033Z,5.00
2019-01-31T00:38:31.555Z,4.77
2019-01-31T00:42:07.379Z,5.00
2019-01-31T00:45:39.964Z,5.50
2019-01-31T00:48:47.011Z,5.40
2019-01-31T00:51:54.306Z,5.13
2019-01-31T00:55:09.310Z,5.50
2019-01-31T00:58:08.516Z,5.30
2019-01-31T01:01:03.991Z,5.17
2019-01-31T01:04:01.882Z,6.00
2019-01-31T01:07:13.660Z,5.63
2019-01-31T01:10:04.858Z,5.50
2019-01-31T01:13:16.304Z,5.13
2019-01-31T01:16:09.850Z,5.90
2019-01-31T01:19:17.440Z,5.73
2019-01-31T01:22:22.979Z,5.47
2019-01-31T01:25:35.858Z,5.27
2019-01-31T01:28:54.003Z,5.83
2019-01-31T01:32:13.666Z,5.40
2019-01-31T01:35:37.512Z,5.37
2019-01-31T01:38:36.770Z,5.63
2019-01-31T01:41:35.488Z,5.80
2019-01-31T01:44:34.874Z,5.40
2019-01-31T01:47:35.526Z,6.00
2019-01-31T01:50:40.877Z,5.17
2019-01-31T01:53:36.757Z,5.87
2019-01-31T01:56:43.217Z,5.10
2019-01-31T01:59:49.406Z,5.80
2019-01-31T02:03:09.891Z,5.87
2019-01-31T02:06:17.398Z,5.40
2019-01-31T02:09:33.688Z,5.67
2019-01-31T02:12:41.110Z,5.97
2019-01-31T02:15:42.783Z,5.90
2019-01-31T02:18:47.566Z,5.70
2019-01-31T02:21:35.994Z,5.30
2019-01-31T02:24:43.383Z,5.73
2019-01-31T02:27:53.160Z,5.73
2019-01-31T02:30:52.838Z,5.50
2019-01-31T02:33:39.355Z,6.67
2019-01-31T02:36:37.046Z,5.87
2019-01-31T02:39:43.150Z,6.23
2019-01-31T02:42:27.462Z,6.50
2019-01-31T02:45:16.929Z,6.00
2019-01-31T02:48:31.421Z,5.90
2019-01-31T02:51:36.373Z,6.17
2019-01-31T02:54:37.456Z,6.23
2019-01-31T02:58:06.103Z,7.00
2019-01-31T03:00:56.779Z,6.63
2019-01-31T03:04:14.506Z,6.07
2019-01-31T03:07:17.891Z,6.77
2019-01-31T03:10:20.680Z,6.47
2019-01-31T03:13:10.676Z,7.43
2019-01-31T03:16:02.407Z,6.10
2019-01-31T03:18:57.344Z,6.80
2019-01-31T03:21:42.893Z,6.50
2019-01-31T03:24:45.175Z,6.87
2019-01-31T03:27:50.862Z,6.43
2019-01-31T03:31:10.254Z,6.07
2019-01-31T03:34:44.963Z,6.37
2019-01-31T03:38:01.176Z,6.33
2019-01-31T03:40:51.863Z,6.50
2019-01-31T03:43:49.418Z,5.97
2019-01-31T03:47:25.291Z,6.10
2019-01-31T03:50:23.884Z,5.67
2019-01-31T03:53:30.265Z,6.23
2019-01-31T03:56:38.872Z,6.37
2019-01-31T03:59:35.947Z,6.40
2019-01-31T04:02:30.080Z,6.60
2019-01-31T04:05:33.134Z,6.57
2019-01-31T04:08:17.775Z,6.23
2019-01-31T04:10:48.814Z,6.47
2019-01-31T04:13:19.758Z,7.27
2019-01-31T04:15:51.350Z,7.40
2019-01-31T04:18:22.156Z,7.70
2019-01-31T04:20:57.671Z,7.30
2019-01-31T04:23:28.320Z,7.33
2019-01-31T04:25:58.919Z,7.20
2019-01-31T04:28:30.790Z,7.60
2019-01-31T04:31:01.837Z,6.83
2019-01-31T04:33:33.672Z,7.20
2019-01-31T04:36:05.150Z,6.63
2019-01-31T04:38:36.605Z,6.93
2019-01-31T04:41:07.282Z,7.27
2019-01-31T04:43:42.134Z,6.77
2019-01-31T04:46:12.819Z,6.87
2019-01-31T04:48:44.268Z,6.70
2019-01-31T04:51:15.572Z,6.90
2019-01-31T04:53:46.398Z,6.70
2019-01-31T04:56:17.044Z,6.40
2019-01-31T04:58:48.162Z,6.10
2019-01-31T05:01:19.179Z,6.23
2019-01-31T05:03:51.663Z,6.00
2019-01-31T05:06:22.631Z,6.40
2019-01-31T05:09:04.204Z,6.00
2019-01-31T05:11:35.283Z,5.87
2019-01-31T05:14:12.404Z,5.97
2019-01-31T05:16:54.087Z,5.70
2019-01-31T05:19:43.370Z,6.13
2019-01-31T05:22:14.054Z,6.33
2019-01-31T05:25:44.721Z,6.43
2019-01-31T05:28:23.559Z,5.77
2019-01-31T05:30:59.451Z,6.47
2019-01-31T05:33:33.744Z,6.57
2019-01-31T05:36:08.544Z,5.67
2019-01-31T05:38:45.404Z,5.90
2019-01-31T05:41:24.414Z,6.20
2019-01-31T05:44:00.397Z,6.17
2019-01-31T05:46:37.712Z,5.90
2019-01-31T05:49:16.372Z,5.87
2019-01-31T05:52:03.814Z,6.00
2019-01-31T05:54:42.086Z,6.00
2019-01-31T05:57:27.424Z,6.20
2019-01-31T06:00:07.575Z,6.70
2019-01-31T06:02:45.273Z,6.33
2019-01-31T06:05:20.874Z,6.43
2019-01-31T06:07:58.050Z,6.07
2019-01-31T06:10:33.688Z,6.70
2019-01-31T06:13:20.577Z,6.37
2019-01-31T06:15:54.381Z,6.13
2019-01-31T06:18:26.052Z,5.77
2019-01-31T06:21:04.245Z,5.80
2019-01-31T06:23:54.667Z,5.90
2019-01-31T06:26:28.614Z,6.47
2019-01-31T06:29:13.630Z,5.67
2019-01-31T06:31:48.874Z,6.10
2019-01-31T06:34:30.675Z,6.47
2019-01-31T06:37:02.257Z,6.37
2019-01-31T06:39:36.224Z,6.83
2019-01-31T06:42:26.419Z,6.67
2019-01-31T06:45:03.275Z,6.40
2019-01-31T06:47:35.281Z,6.35
2019-01-31T06:50:09.888Z,6.50
2019-01-31T06:52:44.191Z,6.70
2019-01-31T06:55:29.064Z,6.77
2019-01-31T06:58:01.438Z,6.33
2019-01-31T07:00:32.151Z,6.50
2019-01-31T07:03:02.936Z,6.40
2019-01-31T07:05:42.128Z,6.33
2019-01-31T07:08:15.716Z,6.37
2019-01-31T07:10:52.992Z,6.70
2019-01-31T07:13:34.568Z,6.10
2019-01-31T07:16:09.100Z,5.70
2019-01-31T07:18:45.408Z,6.67
2019-01-31T07:21:16.388Z,5.87
2019-01-31T07:23:58.389Z,5.73
2019-01-31T07:26:33.335Z,5.93
2019-01-31T07:29:05.675Z,5.60
2019-01-31T07:31:42.889Z,6.50
2019-01-31T07:34:29.740Z,6.43
2019-01-31T07:37:05.146Z,5.70
2019-01-31T07:39:44.144Z,5.53
2019-01-31T07:42:27.334Z,6.30
2019-01-31T07:45:07.396Z,5.80
2019-01-31T07:47:44.876Z,5.83
2019-01-31T07:50:18.327Z,5.83
2019-01-31T07:53:07.894Z,5.33
2019-01-31T07:55:51.383Z,5.47
2019-01-31T07:58:25.487Z,5.20
2019-01-31T08:01:00.918Z,4.87
2019-01-31T08:03:35.517Z,5.30
2019-01-31T08:06:15.597Z,5.00
2019-01-31T08:08:56.160Z,5.33
2019-01-31T08:11:34.307Z,5.33
2019-01-31T08:14:10.270Z,5.03
2019-01-31T08:16:47.458Z,5.03
2019-01-31T08:19:31.221Z,5.17
2019-01-31T08:22:10.751Z,4.57
2019-01-31T08:24:54.939Z,4.70
2019-01-31T08:27:32.171Z,5.33
2019-01-31T08:30:08.757Z,5.03
2019-01-31T08:32:42.878Z,5.17
2019-01-31T08:35:19.237Z,5.37
2019-01-31T08:37:56.275Z,5.90
2019-01-31T08:40:29.051Z,5.83
2019-01-31T08:43:07.179Z,5.90
2019-01-31T08:45:41.479Z,6.37
2019-01-31T08:48:19.888Z,5.90
2019-01-31T08:50:56.043Z,6.03
2019-01-31T08:53:30.285Z,6.20
2019-01-31T08:56:04.334Z,6.60
2019-01-31T08:58:38.198Z,7.53
2019-01-31T09:01:12.513Z,7.40
2019-01-31T09:03:45.992Z,8.43
2019-01-31T09:06:21.152Z,8.93
2019-01-31T09:09:00.007Z,8.50
2019-01-31T09:11:45.894Z,8.43
2019-01-31T09:14:28.468Z,9.13
2019-01-31T09:17:07.256Z,9.37
2019-01-31T09:19:43.829Z,9.67
2019-01-31T09:22:30.727Z,10.03
2019-01-31T09:25:30.746Z,9.97
2019-01-31T09:28:54.644Z,10.70
2019-01-31T09:32:13.367Z,11.93
2019-01-31T09:35:17.628Z,11.23
2019-01-31T09:38:22.568Z,11.03
2019-01-31T09:41:37.169Z,12.03
2019-01-31T09:44:51.242Z,12.17
2019-01-31T09:47:53.742Z,12.20
2019-01-31T09:51:21.685Z,12.30
2019-01-31T09:54:33.002Z,13.43
2019-01-31T09:57:59.947Z,14.10
2019-01-31T10:01:05.103Z,13.03
2019-01-31T10:04:06.181Z,13.50
2019-01-31T10:07:17.480Z,13.13
2019-01-31T10:10:42.120Z,14.33
2019-01-31T10:14:00.858Z,14.20
2019-01-31T10:16:56.684Z,14.47
2019-01-31T10:19:44.518Z,14.33
2019-01-31T10:22:43.229Z,14.57
2019-01-31T10:25:45.962Z,14.97
2019-01-31T10:29:19.100Z,15.10
2019-01-31T10:32:50.627Z,15.67
2019-01-31T10:36:16.711Z,15.20
2019-01-31T10:39:35.476Z,14.77
2019-01-31T10:43:04.208Z,14.87
2019-01-31T10:46:06.470Z,15.63
2019-01-31T10:49:20.559Z,14.83
2019-01-31T10:52:34.948Z,14.17
2019-01-31T10:55:32.049Z,15.13
2019-01-31T10:58:58.489Z,15.97
2019-01-31T11:02:04.863Z,15.45
2019-01-31T11:05:43.337Z,15.68
2019-01-31T11:08:54.612Z,16.10
2019-01-31T11:12:11.832Z,15.13
2019-01-31T11:15:37.677Z,15.63
2019-01-31T11:19:12.029Z,14.60
2019-01-31T11:22:15.656Z,15.80
2019-01-31T11:25:17.889Z,13.63
2019-01-31T11:28:10.223Z,14.57
2019-01-31T11:31:17.456Z,13.63
2019-01-31T11:34:35.135Z,13.53
2019-01-31T11:37:23.813Z,20.90
2019-01-31T11:40:20.961Z,13.37
2019-01-31T11:43:48.857Z,12.83
2019-01-31T11:46:51.388Z,12.67
2019-01-31T11:50:05.851Z,12.63
2019-01-31T11:53:22.093Z,12.37
2019-01-31T11:56:45.887Z,12.73
2019-01-31T11:59:28.906Z,11.03
2019-01-31T12:02:00.472Z,11.53
2019-01-31T12:04:32.076Z,12.13
2019-01-31T12:07:05.651Z,12.00
2019-01-31T12:09:38.059Z,11.83
2019-01-31T12:12:09.450Z,12.80
2019-01-31T12:14:41.095Z,11.83
2019-01-31T12:17:14.470Z,12.50
2019-01-31T12:19:50.875Z,12.03
2019-01-31T12:22:25.048Z,12.27
2019-01-31T12:25:03.920Z,12.73
2019-01-31T12:27:38.496Z,13.07
2019-01-31T12:30:19.767Z,13.00
2019-01-31T12:32:52.465Z,12.87
2019-01-31T12:35:24.820Z,13.40
2019-01-31T12:37:57.515Z,13.20
2019-01-31T12:40:32.488Z,13.70
2019-01-31T12:43:06.334Z,13.40
2019-01-31T12:45:46.601Z,14.60
2019-01-31T12:48:21.344Z,14.10
2019-01-31T12:50:56.472Z,14.20
2019-01-31T12:53:32.651Z,14.10
2019-01-31T12:56:06.620Z,14.30
2019-01-31T12:58:42.315Z,14.73
2019-01-31T13:01:13.199Z,15.13
2019-01-31T13:03:44.092Z,15.20
2019-01-31T13:06:15.574Z,14.53
2019-01-31T13:08:49.853Z,14.47
2019-01-31T13:11:31.166Z,14.30
2019-01-31T13:14:08.019Z,14.17
2019-01-31T13:16:39.090Z,14.60
2019-01-31T13:19:12.131Z,14.53
2019-01-31T13:21:46.948Z,13.70
2019-01-31T13:24:29.396Z,13.33
2019-01-31T13:27:05.988Z,15.00
2019-01-31T13:29:45.527Z,14.73
2019-01-31T13:32:19.958Z,14.30
2019-01-31T13:34:59.110Z,12.97
2019-01-31T13:37:38.101Z,13.20
2019-01-31T13:40:21.016Z,13.43
2019-01-31T13:43:00.619Z,14.30
2019-01-31T13:45:52.096Z,13.50
2019-01-31T13:48:27.509Z,13.17
2019-01-31T13:51:04.374Z,14.23
2019-01-31T13:53:41.441Z,13.38
2019-01-31T13:56:45.609Z,13.30
2019-01-31T13:59:32.260Z,13.37
2019-01-31T14:02:09.409Z,12.97
2019-01-31T14:04:48.589Z,12.57
2019-01-31T14:07:22.362Z,13.00
2019-01-31T14:10:00.393Z,13.13
2019-01-31T14:12:27.870Z,12.87
2019-01-31T14:14:59.570Z,12.43
2019-01-31T14:17:34.079Z,12.37
2019-01-31T14:20:07.879Z,12.60
2019-01-31T14:22:42.960Z,12.00
2019-01-31T14:25:11.917Z,13.17
2019-01-31T14:27:46.471Z,12.47
2019-01-31T14:30:30.955Z,11.67
2019-01-31T14:33:03.207Z,11.77
2019-01-31T14:38:32.983Z,12.05
2019-01-31T14:41:18.694Z,12.93
2019-01-31T14:43:51.978Z,12.03
2019-01-31T14:46:24.061Z,11.93
2019-01-31T14:49:02.491Z,11.57
2019-01-31T14:51:41.614Z,11.83
2019-01-31T14:54:15.273Z,11.53
2019-01-31T14:56:53.240Z,11.80
2019-01-31T14:59:32.977Z,11.35
2019-01-31T15:02:03.712Z,11.17
2019-01-31T15:04:38.197Z,11.80
2019-01-31T15:07:12.702Z,10.60
2019-01-31T15:09:45.301Z,11.73
2019-01-31T15:12:26.709Z,11.57
2019-01-31T15:15:03.363Z,11.30
2019-01-31T15:17:41.246Z,11.43
2019-01-31T15:20:18.232Z,11.33
2019-01-31T15:22:52.157Z,10.23
2019-01-31T15:25:30.312Z,11.77
2019-01-31T15:28:13.060Z,10.77
2019-01-31T15:30:46.594Z,11.17
2019-01-31T15:33:30.454Z,11.80
2019-01-31T15:36:11.432Z,11.63
2019-01-31T15:38:43.693Z,11.03
2019-01-31T15:41:31.982Z,10.97
2019-01-31T15:44:19.651Z,10.60
2019-01-31T15:46:56.701Z,10.87
2019-01-31T15:49:33.532Z,10.60
2019-01-31T15:52:17.017Z,11.03
2019-01-31T15:54:55.999Z,11.73
2019-01-31T15:57:37.459Z,10.08
2019-01-31T16:00:22.076Z,10.20
2019-01-31T16:02:52.863Z,10.40
2019-01-31T16:05:27.898Z,9.80
2019-01-31T16:08:02.228Z,10.23
2019-01-31T16:10:34.781Z,9.43
2019-01-31T16:13:20.020Z,9.07
2019-01-31T16:15:58.082Z,9.40
2019-01-31T16:18:34.841Z,9.20
2019-01-31T16:21:13.044Z,9.00
2019-01-31T16:23:45.142Z,9.67
2019-01-31T16:26:18.239Z,9.97
2019-01-31T16:28:54.231Z,10.07
2019-01-31T16:31:33.396Z,9.33
2019-01-31T16:34:12.566Z,9.60
2019-01-31T16:36:52.299Z,10.23
2019-01-31T16:39:37.955Z,9.73
2019-01-31T16:42:14.867Z,9.07
2019-01-31T16:45:06.443Z,9.37
2019-01-31T16:47:38.271Z,9.60
2019-01-31T16:50:23.858Z,9.63
2019-01-31T16:53:10.725Z,9.87
2019-01-31T16:55:48.424Z,10.50
2019-01-31T16:58:24.225Z,11.33
2019-01-31T17:00:54.858Z,11.63
2019-01-31T17:03:25.726Z,11.63
2019-01-31T17:06:07.048Z,10.73
2019-01-31T17:08:51.086Z,12.30
2019-01-31T17:11:24.945Z,11.53
2019-01-31T17:14:02.690Z,10.77
2019-01-31T17:16:43.300Z,11.80
2019-01-31T17:19:17.950Z,11.93
2019-01-31T17:21:52.698Z,12.57
2019-01-31T17:24:27.270Z,12.40
2019-01-31T17:27:08.289Z,12.20
2019-01-31T17:29:49.248Z,13.53
2019-01-31T17:32:29.979Z,15.13
2019-01-31T17:35:18.014Z,15.20
2019-01-31T17:38:02.470Z,15.23
2019-01-31T17:40:46.298Z,17.23
2019-01-31T17:43:22.932Z,16.73
2019-01-31T17:45:52.465Z,17.23
2019-01-31T17:48:38.107Z,17.27
2019-01-31T17:51:14.777Z,17.73
2019-01-31T17:53:47.599Z,18.83
2019-01-31T17:56:25.793Z,19.87
2019-01-31T17:59:12.218Z,19.53
2019-01-31T18:01:59.847Z,19.60
2019-01-31T18:04:35.071Z,20.43
2019-01-31T18:07:17.538Z,20.00
2019-01-31T18:09:53.527Z,19.30
2019-01-31T18:12:32.810Z,19.53
2019-01-31T18:15:10.300Z,20.72
2019-01-31T18:17:56.380Z,19.97
2019-01-31T18:20:29.788Z,17.40
2019-01-31T18:23:08.685Z,18.60
2019-01-31T18:25:51.536Z,17.87
2019-01-31T18:28:47.704Z,17.57
2019-01-31T18:31:07.336Z,15.83
2019-01-31T18:33:40.145Z,17.13
2019-01-31T18:36:12.518Z,16.53
2019-01-31T18:38:48.812Z,16.40
2019-01-31T18:41:23.901Z,17.23
2019-01-31T18:43:59.507Z,16.90
2019-01-31T18:46:44.281Z,16.10
2019-01-31T18:49:33.918Z,16.57
2019-01-31T18:52:18.668Z,15.97
2019-01-31T18:54:51.639Z,16.30
2019-01-31T18:57:23.246Z,15.60
2019-01-31T19:00:00.648Z,14.17
2019-01-31T19:02:33.601Z,15.00
2019-01-31T19:05:06.735Z,13.00
2019-01-31T19:07:45.269Z,13.10
2019-01-31T19:10:19.690Z,13.23
2019-01-31T19:13:10.065Z,12.30
2019-01-31T19:15:42.759Z,11.43
2019-01-31T19:18:19.236Z,10.80
2019-01-31T19:20:53.320Z,10.63
2019-01-31T19:23:54.602Z,9.97
2019-01-31T19:26:31.145Z,10.47
2019-01-31T19:29:13.538Z,10.23
2019-01-31T19:31:45.057Z,10.97
2019-01-31T19:34:16.271Z,10.97
2019-01-31T19:36:49.746Z,10.07
2019-01-31T19:39:26.059Z,10.00
2019-01-31T19:41:58.785Z,9.80
2019-01-31T19:44:33.712Z,9.90
2019-01-31T19:47:18.703Z,9.30
2019-01-31T19:49:53.097Z,9.50
2019-01-31T19:52:23.215Z,9.00
2019-01-31T19:54:54.632Z,8.43
2019-01-31T19:57:27.972Z,8.37
2019-01-31T19:59:58.775Z,8.00
2019-01-31T20:02:38.504Z,7.53
2019-01-31T20:05:24.449Z,7.27
2019-01-31T20:08:04.108Z,6.10
2019-01-31T20:10:37.685Z,5.93
2019-01-31T20:13:22.206Z,5.50
2019-01-31T20:15:58.666Z,5.40
2019-01-31T20:18:34.912Z,4.63
2019-01-31T20:21:21.988Z,4.70
2019-01-31T20:24:07.773Z,4.30
2019-01-31T20:26:44.463Z,4.67
2019-01-31T20:29:20.026Z,4.50
2019-01-31T20:31:58.066Z,4.93
2019-01-31T20:34:33.106Z,4.83
2019-01-31T20:37:08.070Z,5.50
2019-01-31T20:40:08.749Z,5.93
2019-01-31T20:42:45.575Z,6.43
2019-01-31T20:45:25.379Z,6.73
2019-01-31T20:48:05.871Z,7.97
2019-01-31T20:50:47.511Z,8.93
2019-01-31T20:53:26.368Z,9.23
2019-01-31T20:56:30.192Z,10.23
2019-01-31T20:59:08.895Z,11.27
2019-01-31T21:01:40.585Z,11.20
2019-01-31T21:04:15.506Z,12.03
2019-01-31T21:06:51.922Z,12.60
2019-01-31T21:09:24.191Z,14.00
2019-01-31T21:11:59.589Z,13.03
2019-01-31T21:14:35.776Z,13.43
2019-01-31T21:17:17.579Z,14.97
2019-01-31T21:19:54.256Z,14.77
2019-01-31T21:22:24.992Z,14.57
2019-01-31T21:24:59.461Z,15.73
2019-01-31T21:27:31.210Z,15.80
2019-01-31T21:30:03.207Z,15.40
2019-01-31T21:32:34.612Z,16.10
2019-01-31T21:35:06.536Z,16.00
2019-01-31T21:37:41.721Z,16.57
2019-01-31T21:40:15.346Z,15.03
2019-01-31T21:42:50.172Z,15.63
2019-01-31T21:45:23.129Z,15.70
2019-01-31T21:47:54.543Z,15.47
2019-01-31T21:50:27.369Z,14.83
2019-01-31T21:53:01.485Z,14.63
2019-01-31T21:55:33.854Z,14.07
2019-01-31T21:58:06.256Z,14.37
2019-01-31T22:00:37.032Z,13.77
2019-01-31T22:03:10.065Z,12.93
2019-01-31T22:05:44.196Z,11.60
2019-01-31T22:08:19.706Z,11.20
2019-01-31T22:10:56.463Z,10.33
2019-01-31T22:13:33.235Z,10.37
2019-01-31T22:16:08.132Z,8.13
2019-01-31T22:18:40.662Z,8.17
2019-01-31T22:21:12.129Z,7.93
2019-01-31T22:23:52.092Z,7.37
2019-01-31T22:26:21.449Z,6.80
2019-01-31T22:28:52.284Z,6.20
2019-01-31T22:31:24.928Z,5.80
2019-01-31T22:34:05.523Z,6.00
2019-01-31T22:36:40.109Z,4.97
2019-01-31T22:39:14.060Z,5.00
2019-01-31T22:41:47.421Z,5.23
2019-01-31T22:44:23.915Z,5.10
2019-01-31T22:46:58.975Z,5.67
2019-01-31T22:49:29.774Z,5.90
2019-01-31T22:52:00.446Z,6.00
2019-01-31T22:54:32.589Z,5.80
2019-01-31T22:57:07.448Z,6.57
2019-01-31T22:59:44.705Z,6.37
2019-01-31T23:02:19.017Z,6.70
2019-01-31T23:04:49.782Z,7.33
2019-01-31T23:07:21.634Z,7.23
2019-01-31T23:09:53.709Z,6.77
2019-01-31T23:12:27.253Z,7.13
2019-01-31T23:14:58.071Z,7.57
2019-01-31T23:17:36.991Z,6.50
2019-01-31T23:20:05.519Z,7.33
2019-01-31T23:22:48.579Z,7.00
2019-01-31T23:25:20.286Z,7.20
2019-01-31T23:27:52.679Z,7.27
2019-01-31T23:30:24.819Z,7.77
2019-01-31T23:32:57.318Z,8.07
2019-01-31T23:35:28.552Z,7.90
2019-01-31T23:38:03.903Z,8.30
2019-01-31T23:40:35.782Z,8.00
2019-01-31T23:43:10.045Z,7.77
2019-01-31T23:45:43.440Z,7.90
2019-01-31T23:48:18.224Z,8.80
2019-01-31T23:50:49.616Z,7.93
2019-01-31T23:53:22.059Z,7.83
2019-01-31T23:55:56.843Z,7.63
2019-01-31T23:58:30.776Z,7.40
